Time;durP1;ratioP1;P1;durP2;ratioP2;P2;SDS_P1;SDS_P2;PMS_P1;PMS_P2;Temp;Humidity;BMP_temperature;BMP_pressure;BME280_temperature;BME280_humidity;BME280_pressure;Samples;Min_cycle;Max_cycle;Signal;HPM_P1;HPM_P2
2023/07/17 00:01:08;;;;;;;3.22;1.90;;;22.60;63.70;;;;;;10444297;28;20112;-57
2023/07/17 00:06:09;;;;;;;2.72;1.95;;;22.60;63.70;;;;;;10444547;28;20488;-57
2023/07/17 00:11:09;;;;;;;5.50;2.55;;;22.60;63.80;;;;;;10420226;28;20025;-57
2023/07/17 00:16:10;;;;;;;3.58;1.70;;;22.60;63.70;;;;;;10427169;28;20035;-57
2023/07/17 00:21:11;;;;;;;2.88;1.80;;;22.60;63.70;;;;;;10443627;28;20045;-57
2023/07/17 00:26:11;;;;;;;2.45;1.40;;;22.60;63.70;;;;;;10443527;28;20032;-57
2023/07/17 00:31:12;;;;;;;2.28;1.70;;;22.60;63.70;;;;;;10443305;28;20104;-56
2023/07/17 00:36:13;;;;;;;2.88;1.90;;;22.60;63.80;;;;;;10443559;28;20100;-56
2023/07/17 00:41:13;;;;;;;2.88;1.67;;;22.60;63.60;;;;;;10442695;28;20492;-57
2023/07/17 00:46:14;;;;;;;2.80;1.90;;;22.50;63.50;;;;;;10442888;28;20533;-57
2023/07/17 00:51:15;;;;;;;2.67;1.90;;;22.50;63.50;;;;;;10443413;28;20021;-57
2023/07/17 00:56:17;;;;;;;2.60;1.58;;;22.50;63.60;;;;;;10442140;28;20476;-57
2023/07/17 01:01:17;;;;;;;2.50;1.98;;;22.50;63.60;;;;;;10442689;28;20026;-57
2023/07/17 01:06:18;;;;;;;3.25;2.15;;;22.50;63.60;;;;;;10440906;28;20045;-56
2023/07/17 01:11:19;;;;;;;2.50;1.45;;;22.50;63.60;;;;;;10417531;28;20168;-56
2023/07/17 01:16:19;;;;;;;3.47;1.95;;;22.50;63.50;;;;;;10427185;28;20553;-57
2023/07/17 01:21:26;;;;;;;4.25;1.98;;;22.50;63.40;;;;;;10441794;28;20047;-57
2023/07/17 01:26:26;;;;;;;2.35;1.40;;;22.50;63.80;;;;;;10442251;28;20036;-56
2023/07/17 01:31:27;;;;;;;3.30;2.17;;;22.50;63.60;;;;;;10442035;28;20025;-56
2023/07/17 01:36:28;;;;;;;2.30;1.50;;;22.50;63.60;;;;;;10441937;28;20100;-56
2023/07/17 01:41:28;;;;;;;3.20;1.98;;;22.50;63.70;;;;;;10441655;28;20049;-56
2023/07/17 01:46:29;;;;;;;3.08;1.77;;;22.50;63.70;;;;;;10457805;28;20017;-56
2023/07/17 01:51:30;;;;;;;2.40;1.60;;;22.50;63.60;;;;;;10441482;28;20045;-57
2023/07/17 01:56:30;;;;;;;9.10;2.13;;;22.50;63.50;;;;;;10441916;28;20025;-55
2023/07/17 02:01:33;;;;;;;2.55;1.77;;;22.50;63.50;;;;;;10441304;28;20025;-56
2023/07/17 02:06:34;;;;;;;2.88;2.22;;;22.50;63.50;;;;;;10446071;28;20029;-56
2023/07/17 02:11:34;;;;;;;4.88;2.05;;;22.50;63.60;;;;;;10421401;28;20132;-57
2023/07/17 02:16:35;;;;;;;3.15;1.50;;;22.40;63.60;;;;;;10435797;28;20099;-56
2023/07/17 02:21:36;;;;;;;2.67;1.70;;;22.40;63.60;;;;;;10448225;28;20044;-56
2023/07/17 02:26:36;;;;;;;3.10;1.98;;;22.50;63.80;;;;;;10447968;28;20104;-57
2023/07/17 02:31:37;;;;;;;2.63;1.48;;;22.40;63.90;;;;;;10448109;28;20095;-55
2023/07/17 02:36:38;;;;;;;3.22;2.35;;;22.40;64.00;;;;;;10447712;28;20064;-57
2023/07/17 02:41:38;;;;;;;2.90;2.30;;;22.40;63.90;;;;;;10447160;28;20468;-57
2023/07/17 02:46:39;;;;;;;3.42;2.22;;;22.40;63.80;;;;;;10446963;28;20049;-57
2023/07/17 02:51:40;;;;;;;3.22;1.80;;;22.40;63.80;;;;;;10447431;28;20029;-57
2023/07/17 02:56:41;;;;;;;4.35;2.10;;;22.40;63.90;;;;;;10446705;28;20036;-56
2023/07/17 03:01:43;;;;;;;3.35;2.00;;;22.40;63.90;;;;;;10446830;28;20123;-57
2023/07/17 03:06:44;;;;;;;2.67;1.95;;;22.40;63.80;;;;;;10444758;28;20499;-57
2023/07/17 03:11:44;;;;;;;2.97;2.00;;;22.40;63.80;;;;;;10417896;28;20101;-57
2023/07/17 03:16:45;;;;;;;3.30;2.00;;;22.40;63.70;;;;;;10434266;28;20025;-56
2023/07/17 03:21:45;;;;;;;3.08;1.70;;;22.40;63.80;;;;;;10445470;28;20123;-56
2023/07/17 03:26:46;;;;;;;3.55;1.83;;;22.40;63.90;;;;;;10443839;28;20021;-56
2023/07/17 03:31:47;;;;;;;2.42;1.60;;;22.30;63.90;;;;;;10444762;28;20104;-58
2023/07/17 03:36:47;;;;;;;2.67;1.52;;;22.30;64.00;;;;;;10446439;28;20435;-56
2023/07/17 03:41:49;;;;;;;3.67;2.08;;;22.30;64.00;;;;;;10447052;28;20975;-57
2023/07/17 03:46:50;;;;;;;2.45;1.67;;;22.30;64.00;;;;;;10445903;28;20028;-57
2023/07/17 03:51:50;;;;;;;2.30;1.63;;;22.30;63.90;;;;;;10446613;28;20435;-57
2023/07/17 03:56:51;;;;;;;3.53;1.95;;;22.30;64.00;;;;;;10445763;28;20057;-56
2023/07/17 04:01:52;;;;;;;3.08;1.75;;;22.30;64.00;;;;;;10444337;28;20051;-57
2023/07/17 04:06:52;;;;;;;2.63;1.95;;;22.30;64.00;;;;;;10445626;28;20049;-57
2023/07/17 04:11:53;;;;;;;2.80;1.63;;;22.30;64.00;;;;;;10416212;28;20052;-57
2023/07/17 04:16:54;;;;;;;3.25;1.75;;;22.30;64.00;;;;;;10434343;28;20846;-56
2023/07/17 04:21:55;;;;;;;2.80;1.60;;;22.30;64.00;;;;;;10444703;28;20068;-57
2023/07/17 04:26:56;;;;;;;2.17;1.65;;;22.30;64.00;;;;;;10443252;28;20139;-57
2023/07/17 04:31:56;;;;;;;2.72;1.65;;;22.30;64.00;;;;;;10444866;28;20062;-56
2023/07/17 04:36:57;;;;;;;2.38;1.70;;;22.30;64.00;;;;;;10444549;28;20025;-56
2023/07/17 04:41:58;;;;;;;4.30;2.10;;;22.30;64.00;;;;;;10443815;28;20082;-57
2023/07/17 04:46:59;;;;;;;2.75;1.70;;;22.30;64.00;;;;;;10444765;28;20017;-57
2023/07/17 04:51:59;;;;;;;3.22;1.90;;;22.20;63.90;;;;;;10444192;28;20081;-57
2023/07/17 04:57:00;;;;;;;3.08;1.63;;;22.30;63.80;;;;;;10444345;28;20060;-58
2023/07/17 05:02:01;;;;;;;2.85;1.95;;;22.30;63.80;;;;;;10444024;28;20061;-55
2023/07/17 05:07:02;;;;;;;2.58;1.80;;;22.30;63.90;;;;;;10443877;28;20089;-57
2023/07/17 05:12:04;;;;;;;2.95;2.05;;;22.30;63.90;;;;;;10412315;28;20018;-58
2023/07/17 05:17:06;;;;;;;2.20;1.48;;;22.30;63.80;;;;;;10433361;28;20464;-57
2023/07/17 05:22:06;;;;;;;4.00;1.67;;;22.30;63.80;;;;;;10436699;28;20044;-56
2023/07/17 05:27:07;;;;;;;2.75;1.75;;;22.30;63.80;;;;;;10402502;28;20023;-56
2023/07/17 05:32:08;;;;;;;2.97;1.60;;;22.30;63.80;;;;;;10402403;28;20468;-57
2023/07/17 05:37:08;;;;;;;3.72;1.95;;;22.30;63.90;;;;;;10403188;28;20030;-57
2023/07/17 05:42:09;;;;;;;2.30;1.58;;;22.30;63.90;;;;;;10407414;28;20041;-57
2023/07/17 05:47:10;;;;;;;3.88;1.95;;;22.30;63.90;;;;;;10409734;28;20637;-57
2023/07/17 05:52:11;;;;;;;3.72;1.83;;;22.30;63.90;;;;;;10409360;28;20029;-57
2023/07/17 05:57:11;;;;;;;3.78;2.15;;;22.30;63.90;;;;;;10409291;28;20377;-57
2023/07/17 06:02:12;;;;;;;3.35;2.33;;;22.20;63.90;;;;;;10408990;28;20116;-56
2023/07/17 06:07:13;;;;;;;3.00;1.73;;;22.30;64.00;;;;;;10413619;28;20049;-55
2023/07/17 06:12:13;;;;;;;4.57;2.42;;;22.30;63.90;;;;;;10418037;28;20049;-56
2023/07/17 06:17:14;;;;;;;4.95;1.80;;;22.30;63.90;;;;;;10442026;28;20027;-57
2023/07/17 06:22:15;;;;;;;5.20;2.55;;;22.30;63.80;;;;;;10449517;28;20139;-56
2023/07/17 06:27:16;;;;;;;4.68;2.58;;;22.30;63.80;;;;;;10449711;28;20021;-58
2023/07/17 06:32:17;;;;;;;4.43;2.50;;;22.30;63.80;;;;;;10449101;28;20025;-57
2023/07/17 06:37:17;;;;;;;4.00;2.50;;;22.30;63.80;;;;;;10449083;28;20065;-57
2023/07/17 06:42:18;;;;;;;4.22;3.05;;;22.30;63.70;;;;;;10448685;28;20307;-57
2023/07/17 06:47:19;;;;;;;3.95;2.63;;;22.30;63.70;;;;;;10448870;28;20025;-57
2023/07/17 06:52:19;;;;;;;5.97;2.75;;;22.30;63.70;;;;;;10448486;28;20025;-56
2023/07/17 06:57:20;;;;;;;3.60;2.13;;;22.30;63.70;;;;;;10448623;28;20039;-57
2023/07/17 07:02:21;;;;;;;3.70;2.33;;;22.30;63.70;;;;;;10448389;28;20095;-57
2023/07/17 07:07:22;;;;;;;3.65;2.47;;;22.30;63.70;;;;;;10448193;28;20043;-56
2023/07/17 07:12:22;;;;;;;4.55;2.75;;;22.30;63.70;;;;;;10414088;28;20021;-56
2023/07/17 07:17:23;;;;;;;4.38;2.83;;;22.30;63.70;;;;;;10441233;28;20588;-56
2023/07/17 07:22:24;;;;;;;4.20;2.63;;;22.30;63.80;;;;;;10447085;28;20116;-56
2023/07/17 07:27:26;;;;;;;3.50;2.25;;;22.30;63.90;;;;;;10447440;28;20040;-57
2023/07/17 07:32:26;;;;;;;4.45;2.85;;;22.30;63.80;;;;;;10446990;28;20550;-57
2023/07/17 07:37:27;;;;;;;4.60;2.88;;;22.40;63.90;;;;;;10446673;28;20025;-57
2023/07/17 07:42:28;;;;;;;5.70;2.80;;;22.40;63.40;;;;;;10446210;28;20487;-58
2023/07/17 07:47:30;;;;;;;5.05;2.60;;;22.40;63.50;;;;;;10446434;28;20050;-57
2023/07/17 07:52:30;;;;;;;4.30;3.15;;;22.40;63.60;;;;;;10446046;28;20029;-56
2023/07/17 07:57:31;;;;;;;4.25;3.08;;;22.40;63.40;;;;;;10445985;28;20071;-57
2023/07/17 08:02:32;;;;;;;5.95;3.17;;;22.40;63.50;;;;;;10444920;28;20029;-57
2023/07/17 08:07:32;;;;;;;4.43;2.88;;;22.40;63.40;;;;;;10445472;28;20044;-57
2023/07/17 08:12:33;;;;;;;4.03;2.80;;;22.40;63.60;;;;;;10410743;28;20243;-57
2023/07/17 08:17:34;;;;;;;4.32;2.22;;;22.40;63.60;;;;;;10441037;28;20025;-57
2023/07/17 08:22:35;;;;;;;4.60;2.65;;;22.50;63.40;;;;;;10445239;28;20083;-60
2023/07/17 08:27:36;;;;;;;6.30;3.38;;;22.50;63.30;;;;;;10406095;28;20106;-57
2023/07/17 08:32:36;;;;;;;5.97;3.40;;;22.50;63.20;;;;;;10403492;28;20105;-57
2023/07/17 08:37:37;;;;;;;4.65;3.40;;;22.50;63.20;;;;;;10403622;28;20040;-56
2023/07/17 08:42:43;;;;;;;5.00;3.10;;;22.50;63.20;;;;;;10403109;28;20053;-56
2023/07/17 08:47:44;;;;;;;4.28;2.88;;;22.50;63.10;;;;;;10402339;28;20541;-56
2023/07/17 08:52:47;;;;;;;4.63;3.10;;;22.50;63.10;;;;;;10401865;28;20037;-57
2023/07/17 08:57:52;;;;;;;3.95;2.70;;;22.50;62.90;;;;;;10403324;28;20025;-57
2023/07/17 09:02:53;;;;;;;4.30;2.85;;;22.50;62.90;;;;;;10402146;28;20091;-57
2023/07/17 09:07:54;;;;;;;4.45;2.38;;;22.60;63.10;;;;;;10412968;28;20151;-57
2023/07/17 09:12:59;;;;;;;4.68;2.90;;;22.50;62.90;;;;;;10406223;28;20032;-57
2023/07/17 09:18:00;;;;;;;5.38;3.33;;;22.50;62.80;;;;;;10450778;28;20047;-56
2023/07/17 09:23:01;;;;;;;4.57;2.80;;;22.50;62.90;;;;;;10452005;28;20073;-56
2023/07/17 09:28:02;;;;;;;5.60;2.95;;;22.60;62.90;;;;;;10452158;28;20037;-58
2023/07/17 09:33:05;;;;;;;4.75;3.22;;;22.60;63.50;;;;;;10451553;28;20017;-56
2023/07/17 09:38:10;;;;;;;4.50;2.67;;;22.60;62.80;;;;;;10451199;28;20025;-57
2023/07/17 09:43:10;;;;;;;5.97;3.17;;;22.60;62.60;;;;;;10451439;28;20041;-57
2023/07/17 09:48:14;;;;;;;4.18;2.83;;;22.60;62.60;;;;;;10449805;28;20045;-56
2023/07/17 09:53:15;;;;;;;4.55;2.95;;;22.60;62.60;;;;;;10450043;28;20033;-56
2023/07/17 09:58:18;;;;;;;7.50;3.15;;;22.60;62.70;;;;;;10450715;28;20654;-57
2023/07/17 10:03:21;;;;;;;4.82;2.75;;;22.60;62.60;;;;;;10450622;28;20040;-57
2023/07/17 10:08:22;;;;;;;4.05;2.90;;;22.60;62.70;;;;;;10449512;28;20048;-57
2023/07/17 10:13:23;;;;;;;5.60;2.95;;;22.60;62.60;;;;;;10410593;28;20060;-56
2023/07/17 10:18:24;;;;;;;4.63;2.95;;;22.60;63.20;;;;;;10449929;28;20133;-58
2023/07/17 10:23:27;;;;;;;5.45;2.90;;;22.70;62.60;;;;;;10448411;28;20033;-57
2023/07/17 10:28:33;;;;;;;4.95;3.47;;;22.60;62.40;;;;;;10448643;28;20483;-57
2023/07/17 10:33:38;;;;;;;4.57;3.13;;;22.60;62.60;;;;;;10449184;28;20368;-56
2023/07/17 10:38:39;;;;;;;5.18;2.90;;;22.50;62.70;;;;;;10449494;28;20121;-57
2023/07/17 10:43:54;;;;;;;4.07;2.55;;;22.50;62.70;;;;;;10448684;28;20044;-56
2023/07/17 10:49:17;;;;;;;5.38;2.90;;;22.50;62.70;;;;;;10447448;28;20017;-58
2023/07/17 10:54:18;;;;;;;3.22;2.20;;;22.60;62.80;;;;;;10448560;28;20029;-56
2023/07/17 10:59:20;;;;;;;4.32;2.67;;;22.60;62.80;;;;;;10446908;28;20408;-57
2023/07/17 11:04:20;;;;;;;3.22;2.28;;;22.60;62.90;;;;;;10447046;28;20048;-57
2023/07/17 11:09:21;;;;;;;3.72;2.38;;;22.60;62.80;;;;;;10439468;28;20049;-57
2023/07/17 11:14:22;;;;;;;5.45;2.55;;;22.60;63.00;;;;;;10416447;28;20107;-57
2023/07/17 11:19:22;;;;;;;4.20;2.42;;;22.60;63.00;;;;;;10447892;28;20098;-57
2023/07/17 11:24:24;;;;;;;4.68;2.53;;;22.60;63.10;;;;;;10447560;28;20672;-56
2023/07/17 11:29:24;;;;;;;4.47;2.42;;;22.60;63.20;;;;;;10446013;28;20643;-57
2023/07/17 11:34:25;;;;;;;4.88;3.20;;;22.60;63.20;;;;;;10447892;28;20032;-57
2023/07/17 11:39:31;;;;;;;4.55;2.45;;;22.60;63.20;;;;;;10447086;28;20406;-57
2023/07/17 11:44:33;;;;;;;3.78;2.53;;;22.70;63.30;;;;;;10446385;28;20033;-56
2023/07/17 11:49:35;;;;;;;4.28;2.53;;;22.70;63.30;;;;;;10447026;28;20021;-55
2023/07/17 11:54:38;;;;;;;5.38;2.45;;;22.70;63.40;;;;;;10446049;28;20025;-56
2023/07/17 11:59:43;;;;;;;5.75;2.90;;;22.60;63.40;;;;;;10445974;28;20072;-57
2023/07/17 12:04:43;;;;;;;3.03;2.20;;;22.60;63.50;;;;;;10444210;28;20064;-56
2023/07/17 12:09:46;;;;;;;3.85;2.60;;;22.60;63.50;;;;;;10433666;28;20464;-57
2023/07/17 12:14:46;;;;;;;3.20;2.28;;;22.60;63.60;;;;;;10417207;28;20032;-56
2023/07/17 12:19:47;;;;;;;3.22;2.20;;;22.60;63.60;;;;;;10445276;28;20104;-57
2023/07/17 12:24:48;;;;;;;3.58;2.28;;;22.60;63.60;;;;;;10445089;28;20075;-56
2023/07/17 12:29:48;;;;;;;3.20;2.40;;;22.60;63.60;;;;;;10444838;28;20036;-57
2023/07/17 12:34:50;;;;;;;3.42;2.15;;;22.60;63.60;;;;;;10445434;28;20027;-56
2023/07/17 12:39:50;;;;;;;3.53;2.67;;;22.60;63.70;;;;;;10444609;28;20041;-56
2023/07/17 12:44:51;;;;;;;4.10;2.70;;;22.60;63.70;;;;;;10444886;28;20458;-57
2023/07/17 12:49:52;;;;;;;3.97;2.65;;;22.60;63.70;;;;;;10443799;28;20021;-57
2023/07/17 12:54:53;;;;;;;6.10;2.53;;;22.60;63.80;;;;;;10444916;28;20037;-55
2023/07/17 12:59:53;;;;;;;4.40;2.92;;;22.60;63.90;;;;;;10444255;28;20053;-56
2023/07/17 13:04:54;;;;;;;3.92;2.60;;;22.50;63.90;;;;;;10443767;28;20033;-56
2023/07/17 13:09:54;;;;;;;4.20;2.15;;;22.50;64.00;;;;;;10430742;28;20125;-57
2023/07/17 13:14:55;;;;;;;4.03;3.00;;;22.50;64.10;;;;;;10417071;28;20100;-57
2023/07/17 13:19:56;;;;;;;5.72;2.95;;;22.50;64.10;;;;;;10443681;28;20033;-57
2023/07/17 13:24:56;;;;;;;3.80;2.88;;;22.50;64.20;;;;;;10443473;28;20037;-57
2023/07/17 13:29:57;;;;;;;4.03;2.20;;;22.50;64.20;;;;;;10444149;28;20045;-57
2023/07/17 13:34:58;;;;;;;2.30;1.50;;;22.50;64.20;;;;;;10443283;28;20104;-56
2023/07/17 13:39:59;;;;;;;4.43;2.25;;;22.50;64.40;;;;;;10443389;28;20132;-57
2023/07/17 13:44:59;;;;;;;5.20;2.72;;;22.50;64.50;;;;;;10443885;28;20390;-57
2023/07/17 13:50:01;;;;;;;4.38;2.60;;;22.50;64.50;;;;;;10443239;28;20027;-56
2023/07/17 13:55:02;;;;;;;3.10;1.98;;;22.50;64.50;;;;;;10442999;28;20021;-57
2023/07/17 14:00:03;;;;;;;4.20;3.13;;;22.50;64.50;;;;;;10443630;28;20021;-57
2023/07/17 14:05:05;;;;;;;4.10;2.53;;;22.50;64.50;;;;;;10450313;28;20488;-55
2023/07/17 14:10:06;;;;;;;3.47;2.67;;;22.50;64.60;;;;;;10435407;28;20025;-58
2023/07/17 14:15:07;;;;;;;2.83;1.88;;;22.50;64.60;;;;;;10425126;28;20115;-57
2023/07/17 14:20:09;;;;;;;3.65;2.13;;;22.50;64.60;;;;;;10448892;28;20059;-57
2023/07/17 14:25:10;;;;;;;3.72;2.03;;;22.50;64.70;;;;;;10449702;28;20044;-57
2023/07/17 14:30:11;;;;;;;2.85;1.90;;;22.50;64.70;;;;;;10449455;28;20105;-56
2023/07/17 14:35:12;;;;;;;3.45;2.08;;;22.50;64.70;;;;;;10449643;28;20020;-56
2023/07/17 14:40:13;;;;;;;4.35;2.60;;;22.50;64.70;;;;;;10448570;28;20056;-57
2023/07/17 14:45:14;;;;;;;2.35;1.90;;;22.40;64.60;;;;;;10448721;28;20056;-57
2023/07/17 14:50:19;;;;;;;3.25;1.92;;;22.40;64.60;;;;;;10449017;28;20013;-57
2023/07/17 14:55:20;;;;;;;2.92;1.98;;;22.40;64.70;;;;;;10448630;28;20025;-57
2023/07/17 15:00:22;;;;;;;2.50;1.88;;;22.40;64.70;;;;;;10448807;28;20559;-57
2023/07/17 15:05:23;;;;;;;2.92;1.67;;;22.40;64.80;;;;;;10448355;28;20119;-57
2023/07/17 15:10:23;;;;;;;3.03;2.08;;;22.50;64.90;;;;;;10430644;28;20020;-57
2023/07/17 15:15:24;;;;;;;4.85;2.53;;;22.40;64.80;;;;;;10424969;28;20331;-58
2023/07/17 15:20:25;;;;;;;4.95;2.30;;;22.40;64.80;;;;;;10447015;28;20564;-57
2023/07/17 15:25:26;;;;;;;3.72;2.83;;;22.40;64.80;;;;;;10447193;28;20036;-56
2023/07/17 15:30:26;;;;;;;3.10;1.90;;;22.40;65.00;;;;;;10445624;28;20092;-55
2023/07/17 15:35:27;;;;;;;3.55;1.70;;;22.40;64.80;;;;;;10447656;28;20032;-57
2023/07/17 15:40:29;;;;;;;3.50;2.05;;;22.40;64.90;;;;;;10446578;28;20056;-56
2023/07/17 15:45:30;;;;;;;3.22;2.17;;;22.40;64.80;;;;;;10446518;28;20090;-57
2023/07/17 15:50:30;;;;;;;3.33;2.20;;;22.40;64.90;;;;;;10446799;28;20048;-58
2023/07/17 15:55:31;;;;;;;3.03;2.03;;;22.40;64.90;;;;;;10446203;28;20025;-56
2023/07/17 16:00:32;;;;;;;3.78;2.50;;;22.40;64.90;;;;;;10445844;28;20104;-57
2023/07/17 16:05:32;;;;;;;3.25;1.90;;;22.40;64.80;;;;;;10445027;28;20528;-57
2023/07/17 16:10:33;;;;;;;2.95;1.90;;;22.40;64.90;;;;;;10444564;28;20528;-56
2023/07/17 16:15:34;;;;;;;4.20;2.40;;;22.50;64.70;;;;;;10446466;28;20112;-58
2023/07/17 16:20:36;;;;;;;3.70;2.35;;;22.50;64.80;;;;;;10446761;28;20047;-56
2023/07/17 16:25:36;;;;;;;4.03;2.42;;;22.50;64.60;;;;;;10406030;28;20077;-55
2023/07/17 16:30:37;;;;;;;4.13;2.53;;;22.60;64.80;;;;;;10400912;28;20100;-55
2023/07/17 16:35:38;;;;;;;3.58;1.90;;;22.50;64.60;;;;;;10401065;28;20021;-55
2023/07/17 16:40:39;;;;;;;4.05;2.00;;;22.60;64.50;;;;;;10402139;28;20374;-55
2023/07/17 16:45:40;;;;;;;5.38;2.20;;;22.60;64.40;;;;;;10403010;28;20057;-55
2023/07/17 16:50:41;;;;;;;3.97;2.40;;;22.60;64.20;;;;;;10403583;28;20021;-55
2023/07/17 16:55:42;;;;;;;2.92;2.05;;;22.60;64.00;;;;;;10403158;28;20465;-54
2023/07/17 17:00:43;;;;;;;3.15;2.25;;;22.60;64.20;;;;;;10403328;28;20083;-56
2023/07/17 17:05:43;;;;;;;3.17;2.00;;;22.60;63.90;;;;;;10402898;28;20032;-56
2023/07/17 17:10:44;;;;;;;4.63;2.20;;;22.60;63.90;;;;;;10416248;28;20096;-54
2023/07/17 17:15:45;;;;;;;4.25;2.20;;;22.60;63.90;;;;;;10422708;28;20019;-56
2023/07/17 17:20:46;;;;;;;5.63;2.50;;;22.60;64.00;;;;;;10443949;28;20045;-56
2023/07/17 17:25:46;;;;;;;5.47;2.00;;;22.60;63.80;;;;;;10442395;28;20029;-56
2023/07/17 17:30:47;;;;;;;3.08;1.92;;;22.60;63.70;;;;;;10443699;28;20108;-55
2023/07/17 17:35:48;;;;;;;6.88;2.08;;;22.60;63.60;;;;;;10446587;28;20035;-55
2023/07/17 17:40:48;;;;;;;3.78;2.10;;;22.60;63.60;;;;;;10449797;28;20083;-55
2023/07/17 17:45:49;;;;;;;2.55;1.40;;;22.60;63.40;;;;;;10451120;28;20135;-56
2023/07/17 17:50:50;;;;;;;5.22;2.63;;;22.50;63.30;;;;;;10451333;28;20104;-56
2023/07/17 17:55:51;;;;;;;3.22;1.77;;;22.50;63.30;;;;;;10451232;28;20021;-56
2023/07/17 18:00:52;;;;;;;2.83;1.92;;;22.50;63.50;;;;;;10450621;28;20488;-55
2023/07/17 18:05:54;;;;;;;3.50;1.90;;;22.50;63.50;;;;;;10450832;28;20025;-56
2023/07/17 18:10:55;;;;;;;4.10;2.40;;;22.50;63.40;;;;;;10428492;28;20028;-56
2023/07/17 18:15:55;;;;;;;2.92;1.90;;;22.50;63.40;;;;;;10431474;28;20614;-57
2023/07/17 18:20:57;;;;;;;3.05;1.80;;;22.50;63.20;;;;;;10450149;28;20017;-55
2023/07/17 18:25:57;;;;;;;2.55;1.65;;;22.50;62.80;;;;;;10449886;28;20594;-56
2023/07/17 18:30:58;;;;;;;3.88;2.22;;;22.50;62.90;;;;;;10449778;28;20017;-55
2023/07/17 18:35:59;;;;;;;2.65;1.70;;;22.50;63.20;;;;;;10449499;28;20400;-56
2023/07/17 18:41:01;;;;;;;3.28;2.08;;;22.40;63.20;;;;;;10448835;28;20083;-56
2023/07/17 18:46:01;;;;;;;7.43;1.80;;;22.50;63.20;;;;;;10448398;28;20033;-54
2023/07/17 18:51:02;;;;;;;4.05;2.40;;;22.40;63.20;;;;;;10448868;28;20383;-55
2023/07/17 18:56:03;;;;;;;3.20;2.17;;;22.40;62.80;;;;;;10447043;28;20033;-53
2023/07/17 19:01:03;;;;;;;3.30;1.80;;;22.40;63.10;;;;;;10448332;28;20450;-55
2023/07/17 19:06:04;;;;;;;3.50;2.33;;;22.40;63.20;;;;;;10447918;28;20078;-56
2023/07/17 19:11:15;;;;;;;2.17;1.38;;;22.40;63.40;;;;;;10425065;28;20594;-54
2023/07/17 19:16:18;;;;;;;3.10;1.65;;;22.30;63.80;;;;;;10430811;28;20072;-55
2023/07/17 19:21:19;;;;;;;2.63;1.65;;;22.30;63.80;;;;;;10447873;28;20029;-56
2023/07/17 19:26:20;;;;;;;2.50;1.55;;;22.30;64.00;;;;;;10448327;28;20021;-56
2023/07/17 19:31:26;;;;;;;1.98;1.42;;;22.30;64.10;;;;;;10447496;28;20039;-55
2023/07/17 19:36:26;;;;;;;2.80;1.85;;;22.30;64.10;;;;;;10446875;28;20021;-56
2023/07/17 19:41:27;;;;;;;1.85;1.05;;;22.30;64.10;;;;;;10446938;28;20071;-56
2023/07/17 19:46:29;;;;;;;3.13;1.80;;;22.30;64.10;;;;;;10446239;28;20100;-54
2023/07/17 19:51:29;;;;;;;2.88;1.67;;;22.30;64.10;;;;;;10446428;28;20024;-56
2023/07/17 19:56:30;;;;;;;2.30;1.58;;;22.30;64.10;;;;;;10446383;28;20433;-56
2023/07/17 20:01:32;;;;;;;2.47;1.80;;;22.30;64.10;;;;;;10445623;28;20037;-54
2023/07/17 20:06:33;;;;;;;1.85;1.40;;;22.20;64.00;;;;;;10446218;28;20041;-56
2023/07/17 20:11:34;;;;;;;2.42;1.70;;;22.20;64.00;;;;;;10418963;28;20107;-55
2023/07/17 20:16:35;;;;;;;2.45;1.60;;;22.20;64.00;;;;;;10432097;28;20032;-56
2023/07/17 20:21:38;;;;;;;2.58;1.73;;;22.20;64.00;;;;;;10445217;28;20479;-55
2023/07/17 20:26:39;;;;;;;2.55;1.45;;;22.20;64.00;;;;;;10445194;28;20024;-55
2023/07/17 20:31:39;;;;;;;2.92;1.50;;;22.20;64.00;;;;;;10444392;28;20395;-55
2023/07/17 20:36:40;;;;;;;2.28;1.30;;;22.20;64.00;;;;;;10442576;28;20108;-55
2023/07/17 20:41:41;;;;;;;2.85;1.80;;;22.20;64.00;;;;;;10443355;28;20452;-56
2023/07/17 20:46:42;;;;;;;3.92;1.88;;;22.20;64.00;;;;;;10443199;28;20120;-56
2023/07/17 20:51:43;;;;;;;2.90;1.55;;;22.10;63.80;;;;;;10443295;28;20079;-55
2023/07/17 20:56:44;;;;;;;2.75;1.50;;;22.10;63.90;;;;;;10443382;28;20348;-55
2023/07/17 21:01:45;;;;;;;2.22;1.70;;;22.10;63.80;;;;;;10442964;28;20053;-56
2023/07/17 21:06:45;;;;;;;3.47;1.48;;;22.10;63.80;;;;;;10442607;28;20095;-56
2023/07/17 21:11:47;;;;;;;4.30;2.50;;;22.10;63.80;;;;;;10419450;28;20057;-55
2023/07/17 21:16:48;;;;;;;3.40;1.42;;;22.10;63.80;;;;;;10439801;28;20095;-55
2023/07/17 21:21:49;;;;;;;2.17;1.45;;;22.10;63.80;;;;;;10450573;28;20135;-56
2023/07/17 21:26:49;;;;;;;2.75;1.50;;;22.10;63.90;;;;;;10450924;28;20060;-55
2023/07/17 21:31:50;;;;;;;2.42;1.40;;;22.10;63.90;;;;;;10450765;28;20043;-53
2023/07/17 21:36:51;;;;;;;1.88;1.00;;;22.10;63.80;;;;;;10450366;28;20624;-55
2023/07/17 21:41:52;;;;;;;2.17;1.20;;;22.10;63.80;;;;;;10448798;28;20047;-55
2023/07/17 21:46:52;;;;;;;1.63;1.08;;;22.10;63.80;;;;;;10449708;28;20508;-55
2023/07/17 21:51:53;;;;;;;4.85;1.48;;;22.10;63.80;;;;;;10450163;28;20568;-55
2023/07/17 21:56:54;;;;;;;3.05;1.67;;;22.10;63.80;;;;;;10450130;28;20020;-55
2023/07/17 22:01:54;;;;;;;1.58;1.05;;;22.10;63.80;;;;;;10449365;28;20033;-55
2023/07/17 22:06:55;;;;;;;3.15;1.38;;;22.00;63.70;;;;;;10449199;28;20480;-55
2023/07/17 22:11:56;;;;;;;3.03;1.55;;;22.10;63.70;;;;;;10419923;28;20104;-56
2023/07/17 22:17:01;;;;;;;3.33;1.92;;;22.10;63.70;;;;;;10438677;28;20040;-55
2023/07/17 22:22:02;;;;;;;1.85;1.40;;;22.00;63.70;;;;;;10447748;28;20156;-55
2023/07/17 22:27:03;;;;;;;2.80;1.58;;;22.00;63.60;;;;;;10448191;28;20025;-56
2023/07/17 22:32:06;;;;;;;3.25;1.30;;;22.00;63.60;;;;;;10448523;28;20032;-55
2023/07/17 22:37:06;;;;;;;2.38;1.10;;;22.00;63.60;;;;;;10448496;28;20032;-55
2023/07/17 22:42:08;;;;;;;2.20;1.15;;;22.00;63.60;;;;;;10447778;28;20918;-55
2023/07/17 22:47:08;;;;;;;2.67;1.30;;;22.00;63.60;;;;;;10447540;28;20039;-56
2023/07/17 22:52:09;;;;;;;2.22;1.27;;;22.00;63.50;;;;;;10447561;28;20021;-55
2023/07/17 22:57:10;;;;;;;2.20;1.40;;;22.00;63.60;;;;;;10446960;28;20120;-55
2023/07/17 23:02:11;;;;;;;1.60;0.90;;;22.00;63.60;;;;;;10447199;28;20626;-56
2023/07/17 23:07:11;;;;;;;2.45;1.08;;;22.00;63.50;;;;;;10446607;28;20013;-55
2023/07/17 23:12:12;;;;;;;2.67;1.23;;;22.00;63.50;;;;;;10414996;28;20060;-55
2023/07/17 23:17:13;;;;;;;2.38;1.33;;;22.00;63.50;;;;;;10438873;28;20029;-55
2023/07/17 23:22:16;;;;;;;2.92;1.17;;;22.00;63.50;;;;;;10445992;28;20028;-54
2023/07/17 23:27:16;;;;;;;2.88;1.83;;;21.90;63.50;;;;;;10446288;28;20025;-55
2023/07/17 23:32:17;;;;;;;2.78;1.30;;;21.90;63.50;;;;;;10445725;28;20047;-55
2023/07/17 23:37:17;;;;;;;3.53;1.10;;;21.90;63.50;;;;;;10445668;28;20049;-55
2023/07/17 23:42:23;;;;;;;1.45;0.98;;;21.90;63.50;;;;;;10445466;28;20052;-57
2023/07/17 23:47:24;;;;;;;1.58;1.02;;;21.90;63.50;;;;;;10444962;28;20047;-53
2023/07/17 23:52:25;;;;;;;3.42;1.25;;;21.90;63.50;;;;;;10445246;28;20018;-55
2023/07/17 23:57:26;;;;;;;1.60;0.80;;;21.90;63.50;;;;;;10444880;28;20025;-56
